createdAt,value
2018-07-31T00:00:28.077Z,20.20
2018-07-31T00:02:56.622Z,20.20
2018-07-31T00:05:25.100Z,20.20
2018-07-31T00:07:57.653Z,20.20
2018-07-31T00:10:26.173Z,20.00
2018-07-31T00:12:54.824Z,20.00
2018-07-31T00:15:27.063Z,19.90
2018-07-31T00:17:55.604Z,19.80
2018-07-31T00:20:24.107Z,19.80
2018-07-31T00:23:00.211Z,19.80
2018-07-31T00:25:29.659Z,19.80
2018-07-31T00:28:01.041Z,19.70
2018-07-31T00:30:29.544Z,19.70
2018-07-31T00:35:29.691Z,19.60
2018-07-31T00:37:58.192Z,19.40
2018-07-31T00:40:26.724Z,19.40
2018-07-31T00:42:59.274Z,19.40
2018-07-31T00:45:27.758Z,19.50
2018-07-31T00:48:00.088Z,19.50
2018-07-31T00:52:56.753Z,19.40
2018-07-31T00:55:28.720Z,19.40
2018-07-31T00:57:57.694Z,19.30
2018-07-31T01:00:29.591Z,19.20
2018-07-31T01:02:58.063Z,19.10
2018-07-31T01:05:26.560Z,19.10
2018-07-31T01:07:59.028Z,19.20
2018-07-31T01:10:27.540Z,19.30
2018-07-31T01:12:56.022Z,19.20
2018-07-31T01:15:27.666Z,19.30
2018-07-31T01:17:56.155Z,19.20
2018-07-31T01:20:28.473Z,19.20
2018-07-31T01:23:00.224Z,19.10
2018-07-31T01:25:32.063Z,19.10
2018-07-31T01:28:00.545Z,19.00
2018-07-31T01:30:29.017Z,19.10
2018-07-31T01:33:00.714Z,19.10
2018-07-31T01:35:29.300Z,19.10
2018-07-31T01:37:57.795Z,19.00
2018-07-31T01:40:30.239Z,19.00
2018-07-31T01:42:58.720Z,18.90
2018-07-31T01:47:59.578Z,18.90
2018-07-31T01:50:28.055Z,18.80
2018-07-31T01:52:59.714Z,18.70
2018-07-31T01:55:28.191Z,18.60
2018-07-31T01:57:56.694Z,18.60
2018-07-31T02:00:29.269Z,18.60
2018-07-31T02:02:57.796Z,18.60
2018-07-31T02:05:30.066Z,18.60
2018-07-31T02:07:58.545Z,18.50
2018-07-31T02:10:27.034Z,18.50
2018-07-31T02:12:58.697Z,18.50
2018-07-31T02:15:27.186Z,18.30
2018-07-31T02:17:55.666Z,18.30
2018-07-31T02:20:28.209Z,18.30
2018-07-31T02:23:00.140Z,18.30
2018-07-31T02:25:31.840Z,18.40
2018-07-31T02:28:00.410Z,18.40
2018-07-31T02:30:28.904Z,18.40
2018-07-31T02:33:01.390Z,18.40
2018-07-31T02:35:30.141Z,18.30
2018-07-31T02:38:03.179Z,18.30
2018-07-31T02:40:31.682Z,18.30
2018-07-31T02:43:00.188Z,18.20
2018-07-31T02:45:31.694Z,18.20
2018-07-31T02:48:00.176Z,18.10
2018-07-31T02:50:28.682Z,18.00
2018-07-31T02:53:01.245Z,18.00
2018-07-31T02:55:29.762Z,18.00
2018-07-31T02:57:58.252Z,18.00
2018-07-31T03:00:29.756Z,18.00
2018-07-31T03:02:58.327Z,18.00
2018-07-31T03:05:26.835Z,18.00
2018-07-31T03:07:59.395Z,18.00
2018-07-31T03:10:27.835Z,18.00
2018-07-31T03:13:00.192Z,17.90
2018-07-31T03:15:28.666Z,17.90
2018-07-31T03:17:57.156Z,17.80
2018-07-31T03:20:28.765Z,17.80
2018-07-31T03:23:01.684Z,17.70
2018-07-31T03:25:34.288Z,17.70
2018-07-31T03:28:02.843Z,17.70
2018-07-31T03:30:31.392Z,17.80
2018-07-31T03:33:02.805Z,17.80
2018-07-31T03:35:31.301Z,17.80
2018-07-31T03:37:59.785Z,17.80
2018-07-31T03:40:32.373Z,17.90
2018-07-31T03:46:03.117Z,17.90
2018-07-31T03:48:31.594Z,17.90
2018-07-31T03:51:00.116Z,17.90
2018-07-31T03:53:31.751Z,17.90
2018-07-31T03:56:00.289Z,18.00
2018-07-31T04:01:01.334Z,18.10
2018-07-31T04:03:29.909Z,18.10
2018-07-31T04:06:02.075Z,18.10
2018-07-31T04:08:30.556Z,18.10
2018-07-31T04:10:59.067Z,18.20
2018-07-31T04:13:30.691Z,18.10
2018-07-31T04:15:59.179Z,18.20
2018-07-31T04:18:27.675Z,18.20
2018-07-31T04:21:03.841Z,18.30
2018-07-31T04:23:36.420Z,18.20
2018-07-31T04:26:09.202Z,18.20
2018-07-31T04:28:37.710Z,18.30
2018-07-31T04:31:10.148Z,18.40
2018-07-31T04:33:38.617Z,18.40
2018-07-31T04:36:07.132Z,18.40
2018-07-31T04:38:38.773Z,18.50
2018-07-31T04:41:07.392Z,18.50
2018-07-31T04:43:40.541Z,18.50
2018-07-31T04:46:09.122Z,18.50
2018-07-31T04:48:41.411Z,18.50
2018-07-31T04:51:09.896Z,18.50
2018-07-31T04:53:42.224Z,18.50
2018-07-31T04:56:10.834Z,18.60
2018-07-31T04:58:39.340Z,18.60
2018-07-31T05:01:10.889Z,18.60
2018-07-31T05:03:39.974Z,18.70
2018-07-31T05:06:11.755Z,18.90
2018-07-31T05:11:08.528Z,19.10
2018-07-31T05:13:41.294Z,19.20
2018-07-31T05:16:09.795Z,19.30
2018-07-31T05:18:38.300Z,19.60
2018-07-31T05:21:10.764Z,19.70
2018-07-31T05:23:54.299Z,20.00
2018-07-31T05:26:41.632Z,20.00
2018-07-31T05:29:25.593Z,20.10
2018-07-31T05:32:13.259Z,20.30
2018-07-31T05:34:56.981Z,20.50
2018-07-31T05:37:44.015Z,20.60
2018-07-31T05:40:28.030Z,20.60
2018-07-31T05:43:14.747Z,20.70
2018-07-31T05:45:58.245Z,20.70
2018-07-31T05:48:46.511Z,20.90
2018-07-31T05:51:29.737Z,20.90
2018-07-31T05:54:17.261Z,21.00
2018-07-31T05:57:01.104Z,21.20
2018-07-31T05:59:47.177Z,21.40
2018-07-31T06:05:09.736Z,21.40
2018-07-31T06:07:53.512Z,21.70
2018-07-31T06:10:40.615Z,21.70
2018-07-31T06:13:23.860Z,21.90
2018-07-31T06:16:11.441Z,21.90
2018-07-31T06:18:55.181Z,22.10
2018-07-31T06:21:42.152Z,22.20
2018-07-31T06:24:25.992Z,22.30
2018-07-31T06:29:33.167Z,22.50
2018-07-31T06:34:34.270Z,22.70
2018-07-31T06:37:02.790Z,23.00
2018-07-31T06:39:35.137Z,23.10
2018-07-31T06:42:03.689Z,23.30
2018-07-31T06:44:32.181Z,23.50
2018-07-31T06:47:03.711Z,23.60
2018-07-31T06:52:00.561Z,24.00
2018-07-31T06:54:33.326Z,24.10
2018-07-31T06:57:01.801Z,24.10
2018-07-31T06:59:39.605Z,24.30
2018-07-31T07:02:08.140Z,24.50
2018-07-31T07:04:40.462Z,24.70
2018-07-31T07:07:08.951Z,24.80
2018-07-31T07:09:41.312Z,24.90
2018-07-31T07:12:09.787Z,25.20
2018-07-31T07:14:38.330Z,25.40
2018-07-31T07:17:09.953Z,25.50
2018-07-31T07:19:38.411Z,25.80
2018-07-31T07:22:10.813Z,26.10
2018-07-31T07:24:39.289Z,26.50
2018-07-31T07:27:15.338Z,26.80
2018-07-31T07:29:43.808Z,27.00
2018-07-31T07:32:12.279Z,27.40
2018-07-31T07:34:43.984Z,27.60
2018-07-31T07:37:12.464Z,27.80
2018-07-31T07:39:40.917Z,28.00
2018-07-31T07:42:13.443Z,28.50
2018-07-31T07:44:41.985Z,28.80
2018-07-31T07:47:14.250Z,28.90
2018-07-31T07:49:42.935Z,29.30
2018-07-31T07:52:11.439Z,29.30
2018-07-31T07:54:42.930Z,29.30
2018-07-31T07:57:11.374Z,29.50
2018-07-31T07:59:39.814Z,29.50
2018-07-31T08:02:12.482Z,30.00
2018-07-31T08:04:41.000Z,30.40
2018-07-31T08:07:13.366Z,30.70
2018-07-31T08:09:41.889Z,30.50
2018-07-31T08:12:10.373Z,31.10
2018-07-31T08:14:41.859Z,31.30
2018-07-31T08:17:10.342Z,31.30
2018-07-31T08:19:38.825Z,31.50
2018-07-31T08:22:11.360Z,31.90
2018-07-31T08:24:39.931Z,31.80
2018-07-31T08:27:15.862Z,32.10
2018-07-31T08:29:44.375Z,32.00
2018-07-31T08:32:12.905Z,31.90
2018-07-31T08:34:45.408Z,32.00
2018-07-31T08:39:42.107Z,32.60
2018-07-31T08:42:14.068Z,32.60
2018-07-31T08:44:42.555Z,32.80
2018-07-31T08:47:11.095Z,33.00
2018-07-31T08:49:43.505Z,32.90
2018-07-31T08:52:12.012Z,33.00
2018-07-31T08:54:44.464Z,33.70
2018-07-31T08:57:12.947Z,33.60
2018-07-31T08:59:45.319Z,33.40
2018-07-31T09:02:14.207Z,33.80
2018-07-31T09:04:46.239Z,33.50
2018-07-31T09:07:14.864Z,33.70
2018-07-31T09:09:47.045Z,33.90
2018-07-31T09:12:16.527Z,33.70
2018-07-31T09:14:52.838Z,33.90
2018-07-31T09:17:21.484Z,34.10
2018-07-31T09:19:53.364Z,34.20
2018-07-31T09:22:21.967Z,34.00
2018-07-31T09:24:50.502Z,34.70
2018-07-31T09:27:26.423Z,34.30
2018-07-31T09:29:55.621Z,34.30
2018-07-31T09:32:39.986Z,34.50
2018-07-31T09:35:13.231Z,34.40
2018-07-31T09:37:45.448Z,34.50
2018-07-31T09:40:14.023Z,35.00
2018-07-31T09:42:42.692Z,35.00
2018-07-31T09:45:14.960Z,35.00
2018-07-31T09:47:43.557Z,35.20
2018-07-31T09:50:16.759Z,35.00
2018-07-31T09:52:45.700Z,35.10
2018-07-31T09:55:18.499Z,35.00
2018-07-31T09:57:47.113Z,35.60
2018-07-31T10:00:22.134Z,36.00
2018-07-31T10:02:51.179Z,35.80
2018-07-31T10:05:23.088Z,35.60
2018-07-31T10:07:51.680Z,35.20
2018-07-31T10:12:52.533Z,36.20
2018-07-31T10:15:25.660Z,36.50
2018-07-31T10:17:54.326Z,36.70
2018-07-31T10:20:27.437Z,36.00
2018-07-31T10:22:56.060Z,36.00
2018-07-31T10:25:28.313Z,35.90
2018-07-31T10:28:00.948Z,36.40
2018-07-31T10:30:33.805Z,36.30
2018-07-31T10:33:02.346Z,36.90
2018-07-31T10:35:35.580Z,36.90
2018-07-31T10:38:04.505Z,36.70
2018-07-31T10:40:40.932Z,35.90
2018-07-31T10:43:09.570Z,35.80
2018-07-31T10:45:42.711Z,35.70
2018-07-31T10:48:11.259Z,36.20
2018-07-31T10:50:44.580Z,36.80
2018-07-31T10:53:13.473Z,37.20
2018-07-31T10:55:45.368Z,36.80
2018-07-31T10:58:14.315Z,37.10
2018-07-31T11:00:46.409Z,36.40
2018-07-31T11:03:15.040Z,36.40
2018-07-31T11:05:51.161Z,36.30
2018-07-31T11:08:19.861Z,36.60
2018-07-31T11:10:52.537Z,36.40
2018-07-31T11:13:21.188Z,36.50
2018-07-31T11:15:53.368Z,35.90
2018-07-31T11:18:21.863Z,36.90
2018-07-31T11:20:54.397Z,37.10
2018-07-31T11:23:22.954Z,36.70
2018-07-31T11:25:55.228Z,36.60
2018-07-31T11:28:29.136Z,36.20
2018-07-31T11:31:02.667Z,36.20
2018-07-31T11:33:31.974Z,36.40
2018-07-31T11:36:05.965Z,35.80
2018-07-31T11:38:34.683Z,35.70
2018-07-31T11:41:07.817Z,36.40
2018-07-31T11:43:37.368Z,36.90
2018-07-31T11:46:10.513Z,37.20
2018-07-31T11:48:39.140Z,37.40
2018-07-31T11:51:11.372Z,37.50
2018-07-31T11:53:41.052Z,37.60
2018-07-31T11:56:13.209Z,37.60
2018-07-31T11:58:41.901Z,37.40
2018-07-31T12:01:14.035Z,37.40
2018-07-31T12:03:42.883Z,37.70
2018-07-31T12:06:16.712Z,36.90
2018-07-31T12:08:45.677Z,37.60
2018-07-31T12:11:18.609Z,37.40
2018-07-31T12:13:47.141Z,36.60
2018-07-31T12:16:19.345Z,37.60
2018-07-31T12:18:48.111Z,38.00
2018-07-31T12:21:20.269Z,37.70
2018-07-31T12:23:49.032Z,38.80
2018-07-31T12:26:21.109Z,38.80
2018-07-31T12:28:54.301Z,38.10
2018-07-31T12:31:26.554Z,38.60
2018-07-31T12:33:55.502Z,38.30
2018-07-31T12:36:27.423Z,38.00
2018-07-31T12:38:56.114Z,38.20
2018-07-31T12:41:28.267Z,38.60
2018-07-31T12:43:56.852Z,38.70
2018-07-31T12:46:25.431Z,38.40
2018-07-31T12:48:57.913Z,38.70
2018-07-31T12:51:26.537Z,39.00
2018-07-31T12:53:59.614Z,38.30
2018-07-31T12:56:28.214Z,38.30
2018-07-31T12:59:00.441Z,38.40
2018-07-31T13:01:29.034Z,37.80
2018-07-31T13:04:02.264Z,37.90
2018-07-31T13:06:31.001Z,38.40
2018-07-31T13:09:05.827Z,38.90
2018-07-31T13:11:35.409Z,39.20
2018-07-31T13:14:09.064Z,38.40
2018-07-31T13:19:09.488Z,39.70
2018-07-31T13:21:38.254Z,39.50
2018-07-31T13:24:24.166Z,38.60
2018-07-31T13:26:53.024Z,38.70
2018-07-31T13:29:29.234Z,38.60
2018-07-31T13:31:57.803Z,38.20
2018-07-31T13:34:26.424Z,38.40
2018-07-31T13:36:58.741Z,39.10
2018-07-31T13:39:27.640Z,39.00
2018-07-31T13:42:00.601Z,38.30
2018-07-31T13:44:29.116Z,38.50
2018-07-31T13:46:57.624Z,39.30
2018-07-31T13:49:29.224Z,39.60
2018-07-31T13:51:57.786Z,39.60
2018-07-31T13:54:30.067Z,39.40
2018-07-31T13:56:58.599Z,38.90
2018-07-31T13:59:31.872Z,39.00
2018-07-31T14:02:00.873Z,39.10
2018-07-31T14:04:33.635Z,38.90
2018-07-31T14:07:02.197Z,38.90
2018-07-31T14:09:30.710Z,38.20
2018-07-31T14:12:02.435Z,38.00
2018-07-31T14:17:03.092Z,38.00
2018-07-31T14:19:31.687Z,38.00
2018-07-31T14:22:00.192Z,37.80
2018-07-31T14:24:32.557Z,38.10
2018-07-31T14:27:01.126Z,38.30
2018-07-31T14:29:37.350Z,38.70
2018-07-31T14:32:05.874Z,38.70
2018-07-31T14:34:38.933Z,39.00
2018-07-31T14:37:09.597Z,38.80
2018-07-31T14:39:41.709Z,38.40
2018-07-31T14:42:11.037Z,38.50
2018-07-31T14:44:42.485Z,38.40
2018-07-31T14:47:11.214Z,37.80
2018-07-31T14:49:43.337Z,38.20
2018-07-31T14:52:12.391Z,38.10
2018-07-31T14:54:44.233Z,38.20
2018-07-31T14:57:13.052Z,38.10
2018-07-31T14:59:45.147Z,38.50
2018-07-31T15:02:14.027Z,38.80
2018-07-31T15:04:46.947Z,38.70
2018-07-31T15:07:15.572Z,38.30
2018-07-31T15:09:49.045Z,38.60
2018-07-31T15:12:19.457Z,38.00
2018-07-31T15:14:52.261Z,37.70
2018-07-31T15:17:23.507Z,37.60
2018-07-31T15:19:56.862Z,36.90
2018-07-31T15:22:25.788Z,36.60
2018-07-31T15:27:26.137Z,37.20
2018-07-31T15:30:02.368Z,37.30
2018-07-31T15:32:30.994Z,37.20
2018-07-31T15:35:02.968Z,37.10
2018-07-31T15:37:32.740Z,36.90
2018-07-31T15:40:05.745Z,36.80
2018-07-31T15:42:34.261Z,36.60
2018-07-31T15:45:06.862Z,36.50
2018-07-31T15:47:36.383Z,36.60
2018-07-31T15:50:09.250Z,36.60
2018-07-31T15:52:37.846Z,36.10
2018-07-31T15:55:10.153Z,35.70
2018-07-31T15:57:38.711Z,35.70
2018-07-31T16:00:13.865Z,35.40
2018-07-31T16:02:42.378Z,35.70
2018-07-31T16:05:14.668Z,35.20
2018-07-31T16:07:43.259Z,34.90
2018-07-31T16:10:15.466Z,35.00
2018-07-31T16:12:44.306Z,34.70
2018-07-31T16:15:16.359Z,34.30
2018-07-31T16:17:44.911Z,34.50
2018-07-31T16:20:17.311Z,34.60
2018-07-31T16:22:46.555Z,34.40
2018-07-31T16:25:18.203Z,34.30
2018-07-31T16:27:47.011Z,34.10
2018-07-31T16:30:22.659Z,34.10
2018-07-31T16:32:52.629Z,34.10
2018-07-31T16:35:24.446Z,33.80
2018-07-31T16:37:53.115Z,33.80
2018-07-31T16:40:25.307Z,33.60
2018-07-31T16:42:53.926Z,33.40
2018-07-31T16:45:26.226Z,33.30
2018-07-31T16:47:54.992Z,33.20
2018-07-31T16:50:27.075Z,33.40
2018-07-31T16:52:55.612Z,33.40
2018-07-31T16:55:29.834Z,33.20
2018-07-31T16:57:58.408Z,33.10
2018-07-31T17:00:31.756Z,32.90
2018-07-31T17:03:00.321Z,32.80
2018-07-31T17:05:32.419Z,32.90
2018-07-31T17:08:01.124Z,32.80
2018-07-31T17:10:33.469Z,32.70
2018-07-31T17:13:02.238Z,32.60
2018-07-31T17:15:34.306Z,32.60
2018-07-31T17:18:02.818Z,32.60
2018-07-31T17:20:39.759Z,32.50
2018-07-31T17:23:08.517Z,32.40
2018-07-31T17:25:41.311Z,32.20
2018-07-31T17:28:09.950Z,32.10
2018-07-31T17:30:45.839Z,32.10
2018-07-31T17:33:14.732Z,32.10
2018-07-31T17:35:49.096Z,32.10
2018-07-31T17:38:17.613Z,32.00
2018-07-31T17:40:49.498Z,31.70
2018-07-31T17:43:18.137Z,31.70
2018-07-31T17:45:50.366Z,31.70
2018-07-31T17:48:18.891Z,31.50
2018-07-31T17:50:51.269Z,31.50
2018-07-31T17:53:19.770Z,31.40
2018-07-31T17:55:53.066Z,31.30
2018-07-31T17:58:21.616Z,31.10
2018-07-31T18:00:53.894Z,31.20
2018-07-31T18:03:22.406Z,31.10
2018-07-31T18:05:55.629Z,31.10
2018-07-31T18:08:24.645Z,30.90
2018-07-31T18:10:56.549Z,30.80
2018-07-31T18:13:25.072Z,30.70
2018-07-31T18:15:53.546Z,30.60
2018-07-31T18:18:25.133Z,30.60
2018-07-31T18:20:53.923Z,30.60
2018-07-31T18:23:26.973Z,30.50
2018-07-31T18:25:55.545Z,30.20
2018-07-31T18:28:31.453Z,30.20
2018-07-31T18:31:04.105Z,30.10
2018-07-31T18:33:40.050Z,29.80
2018-07-31T18:36:16.250Z,29.70
2018-07-31T18:38:44.800Z,29.70
2018-07-31T18:41:16.336Z,29.60
2018-07-31T18:43:44.843Z,29.40
2018-07-31T18:46:17.341Z,29.10
2018-07-31T18:48:45.835Z,29.00
2018-07-31T18:51:14.302Z,28.90
2018-07-31T18:53:46.723Z,28.80
2018-07-31T18:56:15.179Z,28.80
2018-07-31T18:58:43.766Z,28.80
2018-07-31T19:01:15.319Z,28.60
2018-07-31T19:03:44.032Z,28.40
2018-07-31T19:06:20.148Z,28.40
2018-07-31T19:08:48.613Z,28.30
2018-07-31T19:11:20.752Z,28.20
2018-07-31T19:13:49.204Z,28.10
2018-07-31T19:16:17.799Z,28.00
2018-07-31T19:18:49.236Z,27.90
2018-07-31T19:21:17.849Z,27.70
2018-07-31T19:23:46.331Z,27.50
2018-07-31T19:26:18.786Z,27.40
2018-07-31T19:28:47.828Z,27.20
2018-07-31T19:31:24.137Z,27.10
2018-07-31T19:36:21.345Z,26.90
2018-07-31T19:38:57.284Z,26.70
2018-07-31T19:41:25.786Z,26.60
2018-07-31T19:43:57.305Z,26.40
2018-07-31T19:46:25.771Z,26.30
2018-07-31T19:48:54.250Z,26.20
2018-07-31T19:51:26.842Z,26.00
2018-07-31T19:53:55.460Z,25.90
2018-07-31T19:56:23.947Z,26.00
2018-07-31T19:58:55.407Z,25.90
2018-07-31T20:01:24.316Z,25.70
2018-07-31T20:03:56.289Z,25.50
2018-07-31T20:06:24.794Z,25.50
2018-07-31T20:08:53.330Z,25.50
2018-07-31T20:11:25.804Z,25.40
2018-07-31T20:13:54.281Z,25.50
2018-07-31T20:16:33.942Z,25.40
2018-07-31T20:19:06.038Z,25.30
2018-07-31T20:21:37.455Z,25.20
2018-07-31T20:24:06.136Z,25.20
2018-07-31T20:26:34.617Z,25.00
2018-07-31T20:29:06.950Z,24.90
2018-07-31T20:31:39.134Z,24.80
2018-07-31T20:34:10.636Z,24.80
2018-07-31T20:36:39.250Z,24.80
2018-07-31T20:39:12.393Z,24.70
2018-07-31T20:41:41.430Z,24.70
2018-07-31T20:44:15.171Z,24.60
2018-07-31T20:46:43.736Z,24.60
2018-07-31T20:49:16.900Z,24.50
2018-07-31T20:51:45.468Z,24.40
2018-07-31T20:54:17.783Z,24.40
2018-07-31T20:56:46.325Z,24.30
2018-07-31T21:01:46.389Z,24.20
2018-07-31T21:04:14.897Z,24.20
2018-07-31T21:06:43.428Z,24.20
2018-07-31T21:09:16.758Z,24.20
2018-07-31T21:11:45.271Z,24.10
2018-07-31T21:14:13.757Z,24.00
2018-07-31T21:16:45.412Z,23.90
2018-07-31T21:19:13.918Z,23.80
2018-07-31T21:21:50.744Z,23.70
2018-07-31T21:24:19.243Z,23.70
2018-07-31T21:26:47.754Z,23.60
2018-07-31T21:29:19.413Z,23.50
2018-07-31T21:31:52.012Z,23.40
2018-07-31T21:34:24.748Z,23.50
2018-07-31T21:36:53.330Z,23.60
2018-07-31T21:39:21.931Z,23.60
2018-07-31T21:41:53.359Z,23.50
2018-07-31T21:44:21.846Z,23.50
2018-07-31T21:46:50.476Z,23.40
2018-07-31T21:49:22.910Z,23.40
2018-07-31T21:51:51.438Z,23.30
2018-07-31T21:54:19.908Z,23.30
2018-07-31T21:56:51.460Z,23.20
2018-07-31T21:59:19.935Z,23.20
2018-07-31T22:01:48.432Z,23.20
2018-07-31T22:04:20.999Z,23.20
2018-07-31T22:06:49.948Z,23.20
2018-07-31T22:09:26.364Z,23.20
2018-07-31T22:11:54.834Z,23.10
2018-07-31T22:14:23.369Z,23.00
2018-07-31T22:16:55.922Z,23.00
2018-07-31T22:19:24.466Z,23.00
2018-07-31T22:21:56.777Z,22.90
2018-07-31T22:24:28.200Z,22.90
2018-07-31T22:27:00.391Z,22.80
2018-07-31T22:29:28.914Z,22.90
2018-07-31T22:32:04.943Z,22.90
2018-07-31T22:34:33.460Z,22.80
2018-07-31T22:37:01.978Z,22.90
2018-07-31T22:39:33.470Z,22.90
2018-07-31T22:42:01.975Z,22.80
2018-07-31T22:44:30.480Z,22.80
2018-07-31T22:47:03.023Z,22.80
2018-07-31T22:49:31.539Z,22.80
2018-07-31T22:52:03.892Z,22.80
2018-07-31T22:54:32.394Z,22.80
2018-07-31T22:57:00.974Z,22.80
2018-07-31T22:59:32.528Z,22.70
2018-07-31T23:02:01.114Z,22.70
2018-07-31T23:04:29.582Z,22.70
2018-07-31T23:07:01.954Z,22.60
2018-07-31T23:09:30.498Z,22.70
2018-07-31T23:12:02.818Z,22.70
2018-07-31T23:14:31.312Z,22.70
2018-07-31T23:16:59.820Z,22.60
2018-07-31T23:19:31.466Z,22.60
2018-07-31T23:21:59.981Z,22.50
2018-07-31T23:24:28.448Z,22.50
2018-07-31T23:27:01.015Z,22.30
2018-07-31T23:29:29.519Z,22.30
2018-07-31T23:32:05.472Z,22.30
2018-07-31T23:34:34.069Z,22.10
2018-07-31T23:37:02.607Z,22.20
2018-07-31T23:39:35.004Z,22.20
2018-07-31T23:42:03.578Z,22.10
2018-07-31T23:44:35.812Z,22.30
2018-07-31T23:47:04.375Z,22.30
2018-07-31T23:49:32.906Z,22.30
2018-07-31T23:52:05.388Z,22.30
2018-07-31T23:54:34.034Z,22.40
2018-07-31T23:57:07.190Z,22.40
2018-07-31T23:59:35.712Z,22.30
